SAS1287 EKCH-EKBI
Flight info
| Callsign | SAS1287 |
|---|---|
| Flight time | 0h 27m |
| Altitude | 16000 |
| Route | ODDON DCT LOKSA |
| Aircraft | B738/M-SDE2E3FGHIRWXY/LB1 |
Departure
| Time | 2026-04-22 19:42 |
|---|---|
| Airport | Copenhagen Kastrup Airport (EKCH) |
Arrival
| Time | 2026-04-22 20:09 |
|---|---|
| Airport | Billund Airport (EKBI) |
| Time | Latitude | Longitude | Altitude | Speed | Heading |
|---|---|---|---|---|---|
| 2026-04-22 18:39 | 55.62811 | 12.64218 | 16 ft | 0 kts | 124° |
| 2026-04-22 19:26 | 55.62816 | 12.64206 | 16 ft | 2 kts | 124° |
| 2026-04-22 19:26 | 55.62826 | 12.64182 | 17 ft | 2 kts | 129° |
| 2026-04-22 19:26 | 55.62836 | 12.64160 | 17 ft | 2 kts | 134° |
| 2026-04-22 19:26 | 55.62845 | 12.64137 | 20 ft | 2 kts | 67° |
| 2026-04-22 19:27 | 55.62839 | 12.64111 | 19 ft | 2 kts | 65° |
| 2026-04-22 19:27 | 55.62832 | 12.64084 | 18 ft | 2 kts | 64° |
| 2026-04-22 19:27 | 55.62825 | 12.64058 | 17 ft | 2 kts | 68° |
| 2026-04-22 19:27 | 55.62821 | 12.64030 | 18 ft | 2 kts | 93° |
| 2026-04-22 19:28 | 55.62823 | 12.64002 | 16 ft | 2 kts | 100° |
| 2026-04-22 19:28 | 55.62826 | 12.63973 | 17 ft | 2 kts | 103° |
| 2026-04-22 19:28 | 55.62830 | 12.63945 | 16 ft | 2 kts | 104° |
| 2026-04-22 19:28 | 55.62834 | 12.63920 | 20 ft | 1 kts | 104° |
| 2026-04-22 19:29 | 55.62835 | 12.63912 | 20 ft | 0 kts | 104° |
| 2026-04-22 19:34 | 55.62802 | 12.63963 | 17 ft | 17 kts | 171° |
| 2026-04-22 19:34 | 55.62691 | 12.63868 | 16 ft | 18 kts | 214° |
| 2026-04-22 19:34 | 55.62578 | 12.63778 | 16 ft | 17 kts | 187° |
| 2026-04-22 19:34 | 55.62465 | 12.63829 | 15 ft | 17 kts | 145° |
| 2026-04-22 19:35 | 55.62392 | 12.63980 | 14 ft | 16 kts | 124° |
| 2026-04-22 19:35 | 55.62340 | 12.64122 | 15 ft | 3 kts | 122° |
| 2026-04-22 19:35 | 55.62330 | 12.64147 | 13 ft | 4 kts | 122° |
| 2026-04-22 19:35 | 55.62310 | 12.64202 | 13 ft | 4 kts | 122° |
| 2026-04-22 19:36 | 55.62295 | 12.64244 | 14 ft | 4 kts | 122° |
| 2026-04-22 19:36 | 55.62281 | 12.64284 | 16 ft | 4 kts | 122° |
| 2026-04-22 19:36 | 55.62259 | 12.64336 | 15 ft | 9 kts | 131° |
| 2026-04-22 19:36 | 55.62235 | 12.64377 | 14 ft | 6 kts | 141° |
| 2026-04-22 19:37 | 55.62154 | 12.64427 | 15 ft | 21 kts | 169° |
| 2026-04-22 19:37 | 55.61984 | 12.64483 | 16 ft | 29 kts | 169° |
| 2026-04-22 19:37 | 55.61791 | 12.64546 | 16 ft | 19 kts | 169° |
| 2026-04-22 19:37 | 55.61661 | 12.64551 | 16 ft | 19 kts | 205° |
| 2026-04-22 19:38 | 55.61537 | 12.64413 | 18 ft | 26 kts | 213° |
| 2026-04-22 19:38 | 55.61382 | 12.64234 | 16 ft | 26 kts | 213° |
| 2026-04-22 19:38 | 55.61234 | 12.64063 | 18 ft | 24 kts | 213° |
| 2026-04-22 19:38 | 55.61090 | 12.63896 | 16 ft | 27 kts | 213° |
| 2026-04-22 19:39 | 55.60915 | 12.63695 | 18 ft | 32 kts | 213° |
| 2026-04-22 19:39 | 55.60824 | 12.63591 | 17 ft | 0 kts | 211° |
| 2026-04-22 19:39 | 55.60800 | 12.63566 | 18 ft | 22 kts | 211° |
| 2026-04-22 19:40 | 55.60549 | 12.63241 | 17 ft | 48 kts | 216° |
| 2026-04-22 19:40 | 55.60378 | 12.63209 | 16 ft | 26 kts | 135° |
| 2026-04-22 19:40 | 55.60405 | 12.63451 | 17 ft | 20 kts | 39° |
| 2026-04-22 19:40 | 55.60415 | 12.63465 | 17 ft | 1 kts | 38° |
| 2026-04-22 19:41 | 55.60423 | 12.63476 | 16 ft | 2 kts | 38° |
| 2026-04-22 19:41 | 55.60448 | 12.63511 | 16 ft | 22 kts | 40° |
| 2026-04-22 19:41 | 55.60814 | 12.64067 | 19 ft | 114 kts | 41° |
| 2026-04-22 19:41 | 55.61619 | 12.65299 | 71 ft | 186 kts | 39° |
| 2026-04-22 19:42 | 55.62655 | 12.66718 | 1243 ft | 171 kts | 29° |
| 2026-04-22 19:42 | 55.63515 | 12.67815 | 2788 ft | 160 kts | 32° |
| 2026-04-22 19:42 | 55.64449 | 12.69262 | 3133 ft | 194 kts | 35° |
| 2026-04-22 19:42 | 55.65532 | 12.70911 | 3349 ft | 213 kts | 27° |
| 2026-04-22 19:43 | 55.68248 | 12.70233 | 4090 ft | 220 kts | 322° |
| 2026-04-22 19:43 | 55.69685 | 12.69226 | 4451 ft | 238 kts | 357° |
| 2026-04-22 19:43 | 55.71364 | 12.69305 | 5162 ft | 242 kts | 348° |
| 2026-04-22 19:44 | 55.72833 | 12.67933 | 5924 ft | 244 kts | 315° |
| 2026-04-22 19:44 | 55.73763 | 12.65378 | 6686 ft | 252 kts | 296° |
| 2026-04-22 19:44 | 55.74147 | 12.62274 | 7366 ft | 263 kts | 279° |
| 2026-04-22 19:44 | 55.74236 | 12.59001 | 8095 ft | 268 kts | 277° |
| 2026-04-22 19:45 | 55.74272 | 12.56796 | 8556 ft | 270 kts | 277° |
| 2026-04-22 19:45 | 55.74331 | 12.52299 | 9500 ft | 275 kts | 277° |
| 2026-04-22 19:45 | 55.74373 | 12.48923 | 10203 ft | 279 kts | 277° |
| 2026-04-22 19:45 | 55.74418 | 12.45412 | 10624 ft | 293 kts | 276° |
| 2026-04-22 19:46 | 55.74472 | 12.41650 | 10767 ft | 316 kts | 276° |
| 2026-04-22 19:46 | 55.74528 | 12.37626 | 10947 ft | 336 kts | 275° |
| 2026-04-22 19:46 | 55.74580 | 12.33592 | 11332 ft | 346 kts | 275° |
| 2026-04-22 19:46 | 55.74632 | 12.29287 | 11943 ft | 350 kts | 275° |
| 2026-04-22 19:47 | 55.74684 | 12.24932 | 12605 ft | 354 kts | 275° |
| 2026-04-22 19:47 | 55.74734 | 12.20591 | 13259 ft | 358 kts | 274° |
| 2026-04-22 19:47 | 55.74769 | 12.17591 | 13689 ft | 362 kts | 274° |
| 2026-04-22 19:47 | 55.74837 | 12.11625 | 14516 ft | 368 kts | 274° |
| 2026-04-22 19:48 | 55.74889 | 12.07059 | 15135 ft | 372 kts | 274° |
| 2026-04-22 19:48 | 55.74939 | 12.02432 | 15769 ft | 376 kts | 274° |
| 2026-04-22 19:48 | 55.74988 | 11.97793 | 16215 ft | 378 kts | 274° |
| 2026-04-22 19:48 | 55.75035 | 11.93131 | 16233 ft | 376 kts | 274° |
| 2026-04-22 19:49 | 55.75079 | 11.88505 | 16239 ft | 375 kts | 274° |
| 2026-04-22 19:49 | 55.75123 | 11.83864 | 16238 ft | 376 kts | 273° |
| 2026-04-22 19:49 | 55.75166 | 11.79213 | 16252 ft | 378 kts | 273° |
| 2026-04-22 19:49 | 55.75207 | 11.74586 | 16260 ft | 379 kts | 273° |
| 2026-04-22 19:50 | 55.75247 | 11.69904 | 16264 ft | 380 kts | 273° |
| 2026-04-22 19:50 | 55.75288 | 11.65210 | 16267 ft | 380 kts | 273° |
| 2026-04-22 19:50 | 55.75330 | 11.60510 | 16255 ft | 380 kts | 273° |
| 2026-04-22 19:50 | 55.75374 | 11.55824 | 16264 ft | 379 kts | 273° |
| 2026-04-22 19:51 | 55.75411 | 11.51150 | 16268 ft | 378 kts | 273° |
| 2026-04-22 19:51 | 55.75444 | 11.46484 | 16277 ft | 378 kts | 273° |
| 2026-04-22 19:51 | 55.75474 | 11.41948 | 16274 ft | 377 kts | 273° |
| 2026-04-22 19:51 | 55.75504 | 11.37305 | 16277 ft | 377 kts | 273° |
| 2026-04-22 19:52 | 55.75533 | 11.32652 | 16276 ft | 377 kts | 273° |
| 2026-04-22 19:52 | 55.75561 | 11.28003 | 16268 ft | 377 kts | 272° |
| 2026-04-22 19:52 | 55.75586 | 11.23386 | 16252 ft | 369 kts | 273° |
| 2026-04-22 19:52 | 55.75608 | 11.18902 | 16255 ft | 356 kts | 272° |
| 2026-04-22 19:53 | 55.75627 | 11.14636 | 16251 ft | 345 kts | 272° |
| 2026-04-22 19:53 | 55.75646 | 11.10389 | 16262 ft | 340 kts | 272° |
| 2026-04-22 19:53 | 55.75658 | 11.07577 | 16263 ft | 333 kts | 272° |
| 2026-04-22 19:53 | 55.75676 | 11.02282 | 16223 ft | 316 kts | 272° |
| 2026-04-22 19:54 | 55.75690 | 10.98421 | 16006 ft | 311 kts | 273° |
| 2026-04-22 19:54 | 55.75699 | 10.95885 | 15796 ft | 310 kts | 273° |
| 2026-04-22 19:54 | 55.75714 | 10.92003 | 15058 ft | 322 kts | 273° |
| 2026-04-22 19:54 | 55.75730 | 10.87944 | 14456 ft | 331 kts | 273° |
| 2026-04-22 19:55 | 55.75741 | 10.83871 | 14100 ft | 329 kts | 273° |
| 2026-04-22 19:55 | 55.75749 | 10.79833 | 13776 ft | 326 kts | 273° |
| 2026-04-22 19:55 | 55.75755 | 10.75825 | 13404 ft | 323 kts | 273° |
| 2026-04-22 19:55 | 55.75759 | 10.71881 | 13288 ft | 313 kts | 273° |
| 2026-04-22 19:56 | 55.75761 | 10.68094 | 13267 ft | 300 kts | 273° |
| 2026-04-22 19:56 | 55.75762 | 10.64466 | 13268 ft | 287 kts | 273° |
| 2026-04-22 19:56 | 55.75763 | 10.60998 | 13263 ft | 274 kts | 273° |
| 2026-04-22 19:56 | 55.75763 | 10.57689 | 13266 ft | 262 kts | 273° |
| 2026-04-22 19:57 | 55.75758 | 10.54562 | 13276 ft | 251 kts | 273° |
| 2026-04-22 19:57 | 55.75757 | 10.51497 | 13277 ft | 247 kts | 274° |
| 2026-04-22 19:57 | 55.75761 | 10.48440 | 13146 ft | 249 kts | 274° |
| 2026-04-22 19:57 | 55.75768 | 10.45352 | 12823 ft | 252 kts | 274° |
| 2026-04-22 19:58 | 55.75770 | 10.42213 | 12381 ft | 258 kts | 274° |
| 2026-04-22 19:58 | 55.75770 | 10.38898 | 11474 ft | 281 kts | 273° |
| 2026-04-22 19:58 | 55.75766 | 10.35327 | 10963 ft | 290 kts | 273° |
| 2026-04-22 19:58 | 55.75755 | 10.31824 | 10906 ft | 279 kts | 273° |
| 2026-04-22 19:59 | 55.75744 | 10.28402 | 10705 ft | 275 kts | 273° |
| 2026-04-22 20:00 | 55.75677 | 10.08319 | 9004 ft | 266 kts | 273° |
| 2026-04-22 20:00 | 55.75665 | 10.05033 | 8710 ft | 265 kts | 273° |
| 2026-04-22 20:01 | 55.75651 | 10.01766 | 8428 ft | 264 kts | 273° |
| 2026-04-22 20:01 | 55.75628 | 9.98504 | 8170 ft | 263 kts | 272° |
| 2026-04-22 20:01 | 55.75594 | 9.95274 | 7903 ft | 261 kts | 272° |
| 2026-04-22 20:01 | 55.75559 | 9.92051 | 7620 ft | 260 kts | 272° |
| 2026-04-22 20:02 | 55.75528 | 9.88851 | 7365 ft | 259 kts | 272° |
| 2026-04-22 20:02 | 55.75496 | 9.85714 | 7089 ft | 255 kts | 272° |
| 2026-04-22 20:02 | 55.75464 | 9.82567 | 6728 ft | 255 kts | 272° |
| 2026-04-22 20:02 | 55.75430 | 9.79427 | 6370 ft | 253 kts | 272° |
| 2026-04-22 20:03 | 55.75397 | 9.76321 | 6037 ft | 251 kts | 272° |
| 2026-04-22 20:03 | 55.75362 | 9.73236 | 5694 ft | 248 kts | 272° |
| 2026-04-22 20:03 | 55.75328 | 9.70190 | 5327 ft | 247 kts | 272° |
| 2026-04-22 20:03 | 55.75293 | 9.67137 | 4974 ft | 246 kts | 272° |
| 2026-04-22 20:04 | 55.75262 | 9.64117 | 4627 ft | 244 kts | 274° |
| 2026-04-22 20:04 | 55.75295 | 9.61119 | 4268 ft | 242 kts | 275° |
| 2026-04-22 20:04 | 55.75303 | 9.58152 | 4012 ft | 238 kts | 274° |
| 2026-04-22 20:04 | 55.75260 | 9.55260 | 3814 ft | 230 kts | 272° |
| 2026-04-22 20:05 | 55.75193 | 9.52489 | 3455 ft | 221 kts | 272° |
| 2026-04-22 20:05 | 55.75120 | 9.49813 | 3096 ft | 212 kts | 274° |
| 2026-04-22 20:05 | 55.75076 | 9.47280 | 3000 ft | 203 kts | 273° |
| 2026-04-22 20:05 | 55.75008 | 9.44757 | 3006 ft | 206 kts | 272° |
| 2026-04-22 20:06 | 55.74924 | 9.42202 | 2949 ft | 209 kts | 272° |
| 2026-04-22 20:06 | 55.74836 | 9.39656 | 2722 ft | 207 kts | 273° |
| 2026-04-22 20:06 | 55.74750 | 9.37181 | 2467 ft | 196 kts | 273° |
| 2026-04-22 20:06 | 55.74670 | 9.34824 | 2198 ft | 184 kts | 274° |
| 2026-04-22 20:07 | 55.74597 | 9.32631 | 1939 ft | 172 kts | 274° |
| 2026-04-22 20:07 | 55.74530 | 9.30578 | 1704 ft | 161 kts | 274° |
| 2026-04-22 20:07 | 55.74466 | 9.28671 | 1500 ft | 148 kts | 272° |
| 2026-04-22 20:07 | 55.74409 | 9.26916 | 1316 ft | 138 kts | 274° |
| 2026-04-22 20:08 | 55.74357 | 9.25211 | 1109 ft | 142 kts | 271° |
| 2026-04-22 20:08 | 55.74301 | 9.23465 | 902 ft | 141 kts | 269° |
| 2026-04-22 20:08 | 55.74246 | 9.21775 | 725 ft | 134 kts | 269° |
| 2026-04-22 20:08 | 55.74192 | 9.20110 | 535 ft | 135 kts | 266° |
| 2026-04-22 20:09 | 55.74135 | 9.18422 | 361 ft | 138 kts | 267° |
| 2026-04-22 20:09 | 55.74082 | 9.16746 | 222 ft | 130 kts | 266° |
| 2026-04-22 20:09 | 55.74034 | 9.15373 | 224 ft | 72 kts | 266° |
| 2026-04-22 20:09 | 55.74020 | 9.14963 | 224 ft | 28 kts | 266° |
| 2026-04-22 20:10 | 55.74012 | 9.14710 | 215 ft | 20 kts | 269° |
| 2026-04-22 20:10 | 55.74097 | 9.14492 | 218 ft | 27 kts | 356° |
| 2026-04-22 20:10 | 55.74227 | 9.14478 | 219 ft | 11 kts | 356° |
| 2026-04-22 20:10 | 55.74303 | 9.14467 | 218 ft | 11 kts | 354° |
| 2026-04-22 20:11 | 55.74378 | 9.14459 | 215 ft | 11 kts | 0° |
| 2026-04-22 20:11 | 55.74449 | 9.14504 | 217 ft | 11 kts | 14° |
| 2026-04-22 20:11 | 55.74519 | 9.14532 | 215 ft | 5 kts | 10° |
| 2026-04-22 20:11 | 55.74520 | 9.14533 | 215 ft | 0 kts | 10° |